sensor_id;sensor_type;location;lat;lon;timestamp;temperature;humidity
26408;DHT22;14583;43.604;1.364;2023-02-28T00:01:55;2.20;99.90
26408;DHT22;14583;43.604;1.364;2023-02-28T00:04:20;2.10;99.90
26408;DHT22;14583;43.604;1.364;2023-02-28T00:06:46;2.10;99.90
26408;DHT22;14583;43.604;1.364;2023-02-28T00:09:12;2.10;99.90
26408;DHT22;14583;43.604;1.364;2023-02-28T00:12:05;2.10;99.90
26408;DHT22;14583;43.604;1.364;2023-02-28T00:14:36;2.10;99.90
26408;DHT22;14583;43.604;1.364;2023-02-28T00:17:11;2.20;99.90
26408;DHT22;14583;43.604;1.364;2023-02-28T00:19:40;2.20;99.90
26408;DHT22;14583;43.604;1.364;2023-02-28T00:22:12;2.00;99.90
26408;DHT22;14583;43.604;1.364;2023-02-28T00:24:38;1.90;99.90
26408;DHT22;14583;43.604;1.364;2023-02-28T00:27:03;2.00;99.90
26408;DHT22;14583;43.604;1.364;2023-02-28T00:29:29;1.90;99.90
26408;DHT22;14583;43.604;1.364;2023-02-28T00:31:55;1.80;99.90
26408;DHT22;14583;43.604;1.364;2023-02-28T00:34:21;1.80;99.90
26408;DHT22;14583;43.604;1.364;2023-02-28T00:36:46;1.80;99.90
26408;DHT22;14583;43.604;1.364;2023-02-28T00:39:15;1.70;99.90
26408;DHT22;14583;43.604;1.364;2023-02-28T00:42:01;1.70;99.90
26408;DHT22;14583;43.604;1.364;2023-02-28T00:44:27;1.60;99.90
26408;DHT22;14583;43.604;1.364;2023-02-28T00:46:53;1.70;99.90
26408;DHT22;14583;43.604;1.364;2023-02-28T00:49:20;1.70;99.90
26408;DHT22;14583;43.604;1.364;2023-02-28T00:51:46;1.90;99.90
26408;DHT22;14583;43.604;1.364;2023-02-28T00:54:12;1.90;99.90
26408;DHT22;14583;43.604;1.364;2023-02-28T00:56:38;1.80;99.90
26408;DHT22;14583;43.604;1.364;2023-02-28T00:59:29;1.80;99.90
26408;DHT22;14583;43.604;1.364;2023-02-28T01:01:55;2.00;99.90
26408;DHT22;14583;43.604;1.364;2023-02-28T01:04:21;1.90;99.90
26408;DHT22;14583;43.604;1.364;2023-02-28T01:06:47;1.90;99.90
26408;DHT22;14583;43.604;1.364;2023-02-28T01:09:13;1.90;99.90
26408;DHT22;14583;43.604;1.364;2023-02-28T01:11:39;1.90;99.90
26408;DHT22;14583;43.604;1.364;2023-02-28T01:14:07;1.80;99.90
26408;DHT22;14583;43.604;1.364;2023-02-28T01:16:33;1.90;99.90
26408;DHT22;14583;43.604;1.364;2023-02-28T01:18:59;1.90;99.90
26408;DHT22;14583;43.604;1.364;2023-02-28T01:21:25;2.00;99.90
26408;DHT22;14583;43.604;1.364;2023-02-28T01:23:51;2.00;99.90
26408;DHT22;14583;43.604;1.364;2023-02-28T01:26:21;1.90;99.90
26408;DHT22;14583;43.604;1.364;2023-02-28T01:29:07;1.90;99.90
26408;DHT22;14583;43.604;1.364;2023-02-28T01:31:33;1.90;99.90
26408;DHT22;14583;43.604;1.364;2023-02-28T01:33:59;1.90;99.90
26408;DHT22;14583;43.604;1.364;2023-02-28T01:36:25;2.00;99.90
26408;DHT22;14583;43.604;1.364;2023-02-28T01:38:52;1.90;99.90
26408;DHT22;14583;43.604;1.364;2023-02-28T01:41:40;2.00;99.90
26408;DHT22;14583;43.604;1.364;2023-02-28T01:47:14;2.10;99.90
26408;DHT22;14583;43.604;1.364;2023-02-28T01:49:48;2.00;99.90
26408;DHT22;14583;43.604;1.364;2023-02-28T01:52:15;2.00;99.90
26408;DHT22;14583;43.604;1.364;2023-02-28T01:54:47;2.00;99.90
26408;DHT22;14583;43.604;1.364;2023-02-28T01:57:18;2.00;99.90
26408;DHT22;14583;43.604;1.364;2023-02-28T01:59:55;2.00;99.90
26408;DHT22;14583;43.604;1.364;2023-02-28T02:02:24;2.00;99.90
26408;DHT22;14583;43.604;1.364;2023-02-28T02:05:15;2.00;99.90
26408;DHT22;14583;43.604;1.364;2023-02-28T02:08:00;2.10;99.90
26408;DHT22;14583;43.604;1.364;2023-02-28T02:10:34;2.10;99.90
26408;DHT22;14583;43.604;1.364;2023-02-28T02:16:16;2.00;99.90
26408;DHT22;14583;43.604;1.364;2023-02-28T02:18:57;2.10;99.90
26408;DHT22;14583;43.604;1.364;2023-02-28T02:27:45;2.20;99.90
26408;DHT22;14583;43.604;1.364;2023-02-28T02:29:55;2.10;99.90
26408;DHT22;14583;43.604;1.364;2023-02-28T02:38:52;2.20;99.90
26408;DHT22;14583;43.604;1.364;2023-02-28T02:41:45;2.10;99.90
26408;DHT22;14583;43.604;1.364;2023-02-28T02:44:36;2.20;99.90
26408;DHT22;14583;43.604;1.364;2023-02-28T02:47:15;2.20;99.90
26408;DHT22;14583;43.604;1.364;2023-02-28T02:49:49;2.20;99.90
26408;DHT22;14583;43.604;1.364;2023-02-28T02:52:29;2.20;99.90
26408;DHT22;14583;43.604;1.364;2023-02-28T02:55:18;2.20;99.90
26408;DHT22;14583;43.604;1.364;2023-02-28T02:58:04;2.10;99.90
26408;DHT22;14583;43.604;1.364;2023-02-28T03:00:38;2.20;99.90
26408;DHT22;14583;43.604;1.364;2023-02-28T03:03:05;2.30;99.90
26408;DHT22;14583;43.604;1.364;2023-02-28T03:05:47;2.20;99.90
26408;DHT22;14583;43.604;1.364;2023-02-28T03:08:13;2.30;99.90
26408;DHT22;14583;43.604;1.364;2023-02-28T03:10:45;2.30;99.90
26408;DHT22;14583;43.604;1.364;2023-02-28T03:16:36;2.20;99.90
26408;DHT22;14583;43.604;1.364;2023-02-28T03:24:59;2.10;99.90
26408;DHT22;14583;43.604;1.364;2023-02-28T03:27:38;2.10;99.90
26408;DHT22;14583;43.604;1.364;2023-02-28T03:30:27;2.10;99.90
26408;DHT22;14583;43.604;1.364;2023-02-28T03:35:35;2.10;99.90
26408;DHT22;14583;43.604;1.364;2023-02-28T03:38:20;2.00;99.90
26408;DHT22;14583;43.604;1.364;2023-02-28T03:40:54;2.10;99.90
26408;DHT22;14583;43.604;1.364;2023-02-28T03:43:31;2.00;99.90
26408;DHT22;14583;43.604;1.364;2023-02-28T03:46:08;2.00;99.90
26408;DHT22;14583;43.604;1.364;2023-02-28T03:48:55;2.10;99.90
26408;DHT22;14583;43.604;1.364;2023-02-28T03:51:26;2.20;99.90
26408;DHT22;14583;43.604;1.364;2023-02-28T03:53:59;2.10;99.90
26408;DHT22;14583;43.604;1.364;2023-02-28T03:59:49;2.10;99.90
26408;DHT22;14583;43.604;1.364;2023-02-28T04:02:18;2.10;99.90
26408;DHT22;14583;43.604;1.364;2023-02-28T04:04:44;2.00;99.90
26408;DHT22;14583;43.604;1.364;2023-02-28T04:07:11;2.00;99.90
26408;DHT22;14583;43.604;1.364;2023-02-28T04:09:37;2.00;99.90
26408;DHT22;14583;43.604;1.364;2023-02-28T04:12:04;2.00;99.90
26408;DHT22;14583;43.604;1.364;2023-02-28T04:14:30;2.00;99.90
26408;DHT22;14583;43.604;1.364;2023-02-28T04:16:55;2.00;99.90
26408;DHT22;14583;43.604;1.364;2023-02-28T04:19:21;1.90;99.90
26408;DHT22;14583;43.604;1.364;2023-02-28T04:21:52;1.90;99.90
26408;DHT22;14583;43.604;1.364;2023-02-28T04:24:28;1.90;99.90
26408;DHT22;14583;43.604;1.364;2023-02-28T04:26:56;1.80;99.90
26408;DHT22;14583;43.604;1.364;2023-02-28T04:29:26;1.80;99.90
26408;DHT22;14583;43.604;1.364;2023-02-28T04:31:53;1.70;99.90
26408;DHT22;14583;43.604;1.364;2023-02-28T04:34:19;1.60;99.90
26408;DHT22;14583;43.604;1.364;2023-02-28T04:36:47;1.60;99.90
26408;DHT22;14583;43.604;1.364;2023-02-28T04:39:15;1.60;99.90
26408;DHT22;14583;43.604;1.364;2023-02-28T04:41:41;1.70;99.90
26408;DHT22;14583;43.604;1.364;2023-02-28T04:44:06;1.60;99.90
26408;DHT22;14583;43.604;1.364;2023-02-28T04:46:32;1.60;99.90
26408;DHT22;14583;43.604;1.364;2023-02-28T04:48:58;1.60;99.90
26408;DHT22;14583;43.604;1.364;2023-02-28T04:51:24;1.40;99.90
26408;DHT22;14583;43.604;1.364;2023-02-28T04:53:50;1.50;99.90
26408;DHT22;14583;43.604;1.364;2023-02-28T04:56:17;1.50;99.90
26408;DHT22;14583;43.604;1.364;2023-02-28T04:58:43;1.50;99.90
26408;DHT22;14583;43.604;1.364;2023-02-28T05:01:28;1.40;99.90
26408;DHT22;14583;43.604;1.364;2023-02-28T05:03:56;1.30;99.90
26408;DHT22;14583;43.604;1.364;2023-02-28T05:06:24;1.30;99.90
26408;DHT22;14583;43.604;1.364;2023-02-28T05:08:51;1.30;99.90
26408;DHT22;14583;43.604;1.364;2023-02-28T05:11:20;1.30;99.90
26408;DHT22;14583;43.604;1.364;2023-02-28T05:13:47;1.40;99.90
26408;DHT22;14583;43.604;1.364;2023-02-28T05:16:12;1.50;99.90
26408;DHT22;14583;43.604;1.364;2023-02-28T05:18:39;1.40;99.90
26408;DHT22;14583;43.604;1.364;2023-02-28T05:21:05;1.20;99.90
26408;DHT22;14583;43.604;1.364;2023-02-28T05:23:31;1.30;99.90
26408;DHT22;14583;43.604;1.364;2023-02-28T05:25:57;1.30;99.90
26408;DHT22;14583;43.604;1.364;2023-02-28T05:28:22;1.40;99.90
26408;DHT22;14583;43.604;1.364;2023-02-28T05:30:48;1.30;99.90
26408;DHT22;14583;43.604;1.364;2023-02-28T05:33:14;1.30;99.90
26408;DHT22;14583;43.604;1.364;2023-02-28T05:35:41;1.30;99.90
26408;DHT22;14583;43.604;1.364;2023-02-28T05:38:08;1.30;99.90
26408;DHT22;14583;43.604;1.364;2023-02-28T05:40:34;1.20;99.90
26408;DHT22;14583;43.604;1.364;2023-02-28T05:43:00;1.40;99.90
26408;DHT22;14583;43.604;1.364;2023-02-28T05:45:26;1.30;99.90
26408;DHT22;14583;43.604;1.364;2023-02-28T05:47:55;1.10;99.90
26408;DHT22;14583;43.604;1.364;2023-02-28T05:50:21;1.10;99.90
26408;DHT22;14583;43.604;1.364;2023-02-28T05:52:53;1.10;99.90
26408;DHT22;14583;43.604;1.364;2023-02-28T05:55:19;1.20;99.90
26408;DHT22;14583;43.604;1.364;2023-02-28T05:57:45;1.10;99.90
26408;DHT22;14583;43.604;1.364;2023-02-28T06:00:11;1.10;99.90
26408;DHT22;14583;43.604;1.364;2023-02-28T06:02:38;1.20;99.90
26408;DHT22;14583;43.604;1.364;2023-02-28T06:05:06;1.20;99.90
26408;DHT22;14583;43.604;1.364;2023-02-28T06:07:33;1.10;99.90
26408;DHT22;14583;43.604;1.364;2023-02-28T06:09:59;1.20;99.90
26408;DHT22;14583;43.604;1.364;2023-02-28T06:12:25;1.30;99.90
26408;DHT22;14583;43.604;1.364;2023-02-28T06:14:50;1.20;99.90
26408;DHT22;14583;43.604;1.364;2023-02-28T06:17:16;1.20;99.90
26408;DHT22;14583;43.604;1.364;2023-02-28T06:19:42;1.20;99.90
26408;DHT22;14583;43.604;1.364;2023-02-28T06:22:07;1.30;99.90
26408;DHT22;14583;43.604;1.364;2023-02-28T06:24:33;1.30;99.90
26408;DHT22;14583;43.604;1.364;2023-02-28T06:26:59;1.30;99.90
26408;DHT22;14583;43.604;1.364;2023-02-28T06:29:33;1.20;99.90
26408;DHT22;14583;43.604;1.364;2023-02-28T06:31:59;1.20;99.90
26408;DHT22;14583;43.604;1.364;2023-02-28T06:34:25;1.10;99.90
26408;DHT22;14583;43.604;1.364;2023-02-28T06:36:51;1.10;99.90
26408;DHT22;14583;43.604;1.364;2023-02-28T06:39:17;1.10;99.90
26408;DHT22;14583;43.604;1.364;2023-02-28T06:41:43;1.00;99.90
26408;DHT22;14583;43.604;1.364;2023-02-28T06:44:17;1.10;99.90
26408;DHT22;14583;43.604;1.364;2023-02-28T06:46:44;1.20;99.90
26408;DHT22;14583;43.604;1.364;2023-02-28T06:49:11;1.20;99.90
26408;DHT22;14583;43.604;1.364;2023-02-28T06:51:39;1.10;99.90
26408;DHT22;14583;43.604;1.364;2023-02-28T06:54:05;0.80;99.90
26408;DHT22;14583;43.604;1.364;2023-02-28T06:56:34;0.90;99.90
26408;DHT22;14583;43.604;1.364;2023-02-28T06:59:00;0.90;99.90
26408;DHT22;14583;43.604;1.364;2023-02-28T07:01:26;1.00;99.90
26408;DHT22;14583;43.604;1.364;2023-02-28T07:03:54;1.10;99.90
26408;DHT22;14583;43.604;1.364;2023-02-28T07:06:21;1.00;99.90
26408;DHT22;14583;43.604;1.364;2023-02-28T07:08:49;1.10;99.90
26408;DHT22;14583;43.604;1.364;2023-02-28T07:11:15;1.10;99.90
26408;DHT22;14583;43.604;1.364;2023-02-28T07:13:41;1.10;99.90
26408;DHT22;14583;43.604;1.364;2023-02-28T07:16:12;1.10;99.90
26408;DHT22;14583;43.604;1.364;2023-02-28T07:18:38;1.00;99.90
26408;DHT22;14583;43.604;1.364;2023-02-28T07:21:06;1.00;99.90
26408;DHT22;14583;43.604;1.364;2023-02-28T07:23:32;1.00;99.90
26408;DHT22;14583;43.604;1.364;2023-02-28T07:25:57;0.90;99.90
26408;DHT22;14583;43.604;1.364;2023-02-28T07:28:23;0.70;99.90
26408;DHT22;14583;43.604;1.364;2023-02-28T07:30:49;0.80;99.90
26408;DHT22;14583;43.604;1.364;2023-02-28T07:33:15;1.00;99.90
26408;DHT22;14583;43.604;1.364;2023-02-28T07:35:41;1.10;99.90
26408;DHT22;14583;43.604;1.364;2023-02-28T07:38:07;1.10;99.90
26408;DHT22;14583;43.604;1.364;2023-02-28T07:40:36;1.10;99.90
26408;DHT22;14583;43.604;1.364;2023-02-28T07:43:03;1.30;99.90
26408;DHT22;14583;43.604;1.364;2023-02-28T07:45:29;1.40;99.90
26408;DHT22;14583;43.604;1.364;2023-02-28T07:47:55;1.30;99.90
26408;DHT22;14583;43.604;1.364;2023-02-28T07:50:21;1.30;99.90
26408;DHT22;14583;43.604;1.364;2023-02-28T07:52:47;1.40;99.90
26408;DHT22;14583;43.604;1.364;2023-02-28T07:55:13;1.50;99.90
26408;DHT22;14583;43.604;1.364;2023-02-28T07:57:40;1.60;99.90
26408;DHT22;14583;43.604;1.364;2023-02-28T08:00:09;1.70;99.90
26408;DHT22;14583;43.604;1.364;2023-02-28T08:02:35;1.70;99.90
26408;DHT22;14583;43.604;1.364;2023-02-28T08:05:01;1.80;99.90
26408;DHT22;14583;43.604;1.364;2023-02-28T08:07:27;1.70;99.90
26408;DHT22;14583;43.604;1.364;2023-02-28T08:09:53;1.80;99.90
26408;DHT22;14583;43.604;1.364;2023-02-28T08:12:18;1.80;99.90
26408;DHT22;14583;43.604;1.364;2023-02-28T08:14:44;2.10;99.90
26408;DHT22;14583;43.604;1.364;2023-02-28T08:17:10;2.40;99.90
26408;DHT22;14583;43.604;1.364;2023-02-28T08:19:36;2.50;99.90
26408;DHT22;14583;43.604;1.364;2023-02-28T08:22:02;2.50;99.90
26408;DHT22;14583;43.604;1.364;2023-02-28T08:24:28;2.50;99.90
26408;DHT22;14583;43.604;1.364;2023-02-28T08:26:55;2.60;99.90
26408;DHT22;14583;43.604;1.364;2023-02-28T08:29:21;2.60;99.90
26408;DHT22;14583;43.604;1.364;2023-02-28T08:31:46;2.80;99.90
26408;DHT22;14583;43.604;1.364;2023-02-28T08:34:14;2.70;99.90
26408;DHT22;14583;43.604;1.364;2023-02-28T08:36:40;2.80;99.90
26408;DHT22;14583;43.604;1.364;2023-02-28T08:39:06;2.90;99.90
26408;DHT22;14583;43.604;1.364;2023-02-28T08:41:33;2.90;99.90
26408;DHT22;14583;43.604;1.364;2023-02-28T08:43:58;3.10;99.90
26408;DHT22;14583;43.604;1.364;2023-02-28T08:46:25;3.00;99.90
26408;DHT22;14583;43.604;1.364;2023-02-28T08:48:52;3.20;99.90
26408;DHT22;14583;43.604;1.364;2023-02-28T08:51:19;3.10;99.90
26408;DHT22;14583;43.604;1.364;2023-02-28T08:53:52;3.00;99.90
26408;DHT22;14583;43.604;1.364;2023-02-28T08:56:18;2.90;99.90
26408;DHT22;14583;43.604;1.364;2023-02-28T08:58:45;2.80;99.90
26408;DHT22;14583;43.604;1.364;2023-02-28T09:01:17;2.90;99.90
26408;DHT22;14583;43.604;1.364;2023-02-28T09:03:43;3.00;99.90
26408;DHT22;14583;43.604;1.364;2023-02-28T09:06:10;3.10;99.90
26408;DHT22;14583;43.604;1.364;2023-02-28T09:08:36;3.20;99.90
26408;DHT22;14583;43.604;1.364;2023-02-28T09:11:02;3.10;99.90
26408;DHT22;14583;43.604;1.364;2023-02-28T09:13:29;3.10;99.90
26408;DHT22;14583;43.604;1.364;2023-02-28T09:15:57;3.10;99.90
26408;DHT22;14583;43.604;1.364;2023-02-28T09:18:24;3.10;99.90
26408;DHT22;14583;43.604;1.364;2023-02-28T09:20:49;3.10;99.90
26408;DHT22;14583;43.604;1.364;2023-02-28T09:23:16;3.10;99.90
26408;DHT22;14583;43.604;1.364;2023-02-28T09:25:47;3.10;99.90
26408;DHT22;14583;43.604;1.364;2023-02-28T09:28:13;3.20;99.90
26408;DHT22;14583;43.604;1.364;2023-02-28T09:30:41;3.30;99.90
26408;DHT22;14583;43.604;1.364;2023-02-28T09:33:07;3.40;99.90
26408;DHT22;14583;43.604;1.364;2023-02-28T09:35:33;3.40;99.90
26408;DHT22;14583;43.604;1.364;2023-02-28T09:37:59;3.50;99.90
26408;DHT22;14583;43.604;1.364;2023-02-28T09:40:25;3.50;99.90
26408;DHT22;14583;43.604;1.364;2023-02-28T09:42:53;3.50;99.90
26408;DHT22;14583;43.604;1.364;2023-02-28T09:45:35;3.50;99.90
26408;DHT22;14583;43.604;1.364;2023-02-28T09:48:10;3.50;99.90
26408;DHT22;14583;43.604;1.364;2023-02-28T09:50:51;3.60;99.90
26408;DHT22;14583;43.604;1.364;2023-02-28T09:53:33;3.60;99.90
26408;DHT22;14583;43.604;1.364;2023-02-28T09:56:11;3.70;99.90
26408;DHT22;14583;43.604;1.364;2023-02-28T10:01:43;3.70;99.90
26408;DHT22;14583;43.604;1.364;2023-02-28T10:06:48;3.80;99.90
26408;DHT22;14583;43.604;1.364;2023-02-28T10:09:26;3.80;99.70
26408;DHT22;14583;43.604;1.364;2023-02-28T10:11:57;3.80;99.80
26408;DHT22;14583;43.604;1.364;2023-02-28T10:14:28;3.80;99.90
26408;DHT22;14583;43.604;1.364;2023-02-28T10:16:58;3.90;99.60
26408;DHT22;14583;43.604;1.364;2023-02-28T10:22:22;4.00;99.70
26408;DHT22;14583;43.604;1.364;2023-02-28T10:24:52;4.00;99.70
26408;DHT22;14583;43.604;1.364;2023-02-28T10:27:28;4.00;99.70
26408;DHT22;14583;43.604;1.364;2023-02-28T10:30:01;4.00;99.70
26408;DHT22;14583;43.604;1.364;2023-02-28T10:32:35;4.00;99.10
26408;DHT22;14583;43.604;1.364;2023-02-28T10:37:30;4.20;98.80
26408;DHT22;14583;43.604;1.364;2023-02-28T10:40:03;4.20;98.70
26408;DHT22;14583;43.604;1.364;2023-02-28T10:42:31;4.30;98.80
26408;DHT22;14583;43.604;1.364;2023-02-28T10:47:34;4.50;98.30
26408;DHT22;14583;43.604;1.364;2023-02-28T10:50:03;4.50;98.10
26408;DHT22;14583;43.604;1.364;2023-02-28T10:52:38;4.40;98.20
26408;DHT22;14583;43.604;1.364;2023-02-28T10:55:25;4.40;99.00
26408;DHT22;14583;43.604;1.364;2023-02-28T10:57:52;4.40;98.50
26408;DHT22;14583;43.604;1.364;2023-02-28T11:00:24;4.40;98.10
26408;DHT22;14583;43.604;1.364;2023-02-28T11:02:51;4.50;98.70
26408;DHT22;14583;43.604;1.364;2023-02-28T11:08:10;4.80;98.50
26408;DHT22;14583;43.604;1.364;2023-02-28T11:10:37;4.80;98.40
26408;DHT22;14583;43.604;1.364;2023-02-28T11:13:03;4.80;98.20
26408;DHT22;14583;43.604;1.364;2023-02-28T11:15:33;4.90;98.60
26408;DHT22;14583;43.604;1.364;2023-02-28T11:18:14;4.90;98.10
26408;DHT22;14583;43.604;1.364;2023-02-28T11:20:51;4.80;98.20
26408;DHT22;14583;43.604;1.364;2023-02-28T11:23:17;4.90;97.90
26408;DHT22;14583;43.604;1.364;2023-02-28T11:25:51;4.80;97.90
26408;DHT22;14583;43.604;1.364;2023-02-28T11:28:34;4.80;97.70
26408;DHT22;14583;43.604;1.364;2023-02-28T11:33:54;4.80;97.60
26408;DHT22;14583;43.604;1.364;2023-02-28T11:36:28;4.80;97.00
26408;DHT22;14583;43.604;1.364;2023-02-28T11:39:15;4.80;97.20
26408;DHT22;14583;43.604;1.364;2023-02-28T11:42:16;4.90;97.30
26408;DHT22;14583;43.604;1.364;2023-02-28T11:52:40;5.50;95.10
26408;DHT22;14583;43.604;1.364;2023-02-28T12:11:50;5.90;93.70
26408;DHT22;14583;43.604;1.364;2023-02-28T12:17:13;5.80;93.30
26408;DHT22;14583;43.604;1.364;2023-02-28T12:19:54;5.80;93.40
26408;DHT22;14583;43.604;1.364;2023-02-28T12:23:00;6.00;93.80
26408;DHT22;14583;43.604;1.364;2023-02-28T12:28:26;6.10;93.00
26408;DHT22;14583;43.604;1.364;2023-02-28T12:31:01;6.20;93.00
26408;DHT22;14583;43.604;1.364;2023-02-28T12:33:34;6.10;92.80
26408;DHT22;14583;43.604;1.364;2023-02-28T12:36:09;6.20;93.00
26408;DHT22;14583;43.604;1.364;2023-02-28T12:38:47;6.30;92.90
26408;DHT22;14583;43.604;1.364;2023-02-28T12:41:21;6.30;92.80
26408;DHT22;14583;43.604;1.364;2023-02-28T12:43:57;6.20;92.10
26408;DHT22;14583;43.604;1.364;2023-02-28T12:46:35;5.90;92.60
26408;DHT22;14583;43.604;1.364;2023-02-28T12:49:08;5.90;92.30
26408;DHT22;14583;43.604;1.364;2023-02-28T12:51:35;5.90;92.60
26408;DHT22;14583;43.604;1.364;2023-02-28T12:57:49;5.90;91.90
26408;DHT22;14583;43.604;1.364;2023-02-28T13:00:20;6.00;91.70
26408;DHT22;14583;43.604;1.364;2023-02-28T13:08:23;5.80;91.10
26408;DHT22;14583;43.604;1.364;2023-02-28T13:10:53;5.90;91.50
26408;DHT22;14583;43.604;1.364;2023-02-28T13:13:24;5.80;91.30
26408;DHT22;14583;43.604;1.364;2023-02-28T13:18:38;5.90;91.90
26408;DHT22;14583;43.604;1.364;2023-02-28T13:21:07;5.90;91.30
26408;DHT22;14583;43.604;1.364;2023-02-28T13:26:17;6.00;90.90
26408;DHT22;14583;43.604;1.364;2023-02-28T13:31:19;6.50;90.80
26408;DHT22;14583;43.604;1.364;2023-02-28T13:36:31;6.50;90.10
26408;DHT22;14583;43.604;1.364;2023-02-28T13:38:57;6.90;90.00
26408;DHT22;14583;43.604;1.364;2023-02-28T13:44:14;7.20;87.50
26408;DHT22;14583;43.604;1.364;2023-02-28T13:51:52;7.30;84.50
26408;DHT22;14583;43.604;1.364;2023-02-28T13:54:21;7.40;83.30
26408;DHT22;14583;43.604;1.364;2023-02-28T13:57:14;7.70;84.80
26408;DHT22;14583;43.604;1.364;2023-02-28T14:00:08;7.60;83.20
26408;DHT22;14583;43.604;1.364;2023-02-28T14:03:05;7.40;82.90
26408;DHT22;14583;43.604;1.364;2023-02-28T14:05:34;7.00;83.50
26408;DHT22;14583;43.604;1.364;2023-02-28T14:08:06;7.00;83.10
26408;DHT22;14583;43.604;1.364;2023-02-28T14:10:35;7.00;84.20
26408;DHT22;14583;43.604;1.364;2023-02-28T14:13:11;6.80;83.70
26408;DHT22;14583;43.604;1.364;2023-02-28T14:15:44;6.80;85.00
26408;DHT22;14583;43.604;1.364;2023-02-28T14:20:52;6.60;87.70
26408;DHT22;14583;43.604;1.364;2023-02-28T14:37:47;6.50;87.40
26408;DHT22;14583;43.604;1.364;2023-02-28T14:43:18;6.40;86.80
26408;DHT22;14583;43.604;1.364;2023-02-28T14:45:50;6.30;86.80
26408;DHT22;14583;43.604;1.364;2023-02-28T14:48:18;6.20;86.50
26408;DHT22;14583;43.604;1.364;2023-02-28T14:50:50;6.20;86.70
26408;DHT22;14583;43.604;1.364;2023-02-28T14:53:18;6.10;86.00
26408;DHT22;14583;43.604;1.364;2023-02-28T14:55:46;6.10;85.90
26408;DHT22;14583;43.604;1.364;2023-02-28T14:58:22;6.00;85.20
26408;DHT22;14583;43.604;1.364;2023-02-28T15:00:50;6.00;85.30
26408;DHT22;14583;43.604;1.364;2023-02-28T15:03:28;5.80;85.50
26408;DHT22;14583;43.604;1.364;2023-02-28T15:06:02;5.80;85.60
26408;DHT22;14583;43.604;1.364;2023-02-28T15:08:29;5.90;86.40
26408;DHT22;14583;43.604;1.364;2023-02-28T15:11:02;6.00;86.60
26408;DHT22;14583;43.604;1.364;2023-02-28T15:13:47;5.90;85.20
26408;DHT22;14583;43.604;1.364;2023-02-28T15:16:26;5.80;85.90
26408;DHT22;14583;43.604;1.364;2023-02-28T15:18:59;5.90;86.30
26408;DHT22;14583;43.604;1.364;2023-02-28T15:21:29;5.80;84.90
26408;DHT22;14583;43.604;1.364;2023-02-28T15:24:06;5.80;86.20
26408;DHT22;14583;43.604;1.364;2023-02-28T15:26:38;5.70;84.50
26408;DHT22;14583;43.604;1.364;2023-02-28T15:29:08;5.70;85.60
26408;DHT22;14583;43.604;1.364;2023-02-28T15:31:43;5.70;86.10
26408;DHT22;14583;43.604;1.364;2023-02-28T15:34:12;5.60;85.60
26408;DHT22;14583;43.604;1.364;2023-02-28T15:36:41;5.60;86.50
26408;DHT22;14583;43.604;1.364;2023-02-28T15:39:42;5.50;84.70
26408;DHT22;14583;43.604;1.364;2023-02-28T15:42:12;5.50;86.00
26408;DHT22;14583;43.604;1.364;2023-02-28T15:44:38;5.50;86.50
26408;DHT22;14583;43.604;1.364;2023-02-28T15:47:16;5.60;86.70
26408;DHT22;14583;43.604;1.364;2023-02-28T15:50:01;5.60;86.50
26408;DHT22;14583;43.604;1.364;2023-02-28T15:52:29;5.60;86.10
26408;DHT22;14583;43.604;1.364;2023-02-28T15:55:06;5.50;85.30
26408;DHT22;14583;43.604;1.364;2023-02-28T15:57:32;5.50;86.60
26408;DHT22;14583;43.604;1.364;2023-02-28T16:00:01;5.50;86.90
26408;DHT22;14583;43.604;1.364;2023-02-28T16:02:37;5.50;86.20
26408;DHT22;14583;43.604;1.364;2023-02-28T16:07:32;5.30;85.90
26408;DHT22;14583;43.604;1.364;2023-02-28T16:09:59;5.40;86.70
26408;DHT22;14583;43.604;1.364;2023-02-28T16:12:30;5.30;86.60
26408;DHT22;14583;43.604;1.364;2023-02-28T16:15:02;5.30;86.80
26408;DHT22;14583;43.604;1.364;2023-02-28T16:17:31;5.30;86.80
26408;DHT22;14583;43.604;1.364;2023-02-28T16:19:58;5.30;86.30
26408;DHT22;14583;43.604;1.364;2023-02-28T16:22:23;5.20;86.30
26408;DHT22;14583;43.604;1.364;2023-02-28T16:24:49;5.20;86.20
26408;DHT22;14583;43.604;1.364;2023-02-28T16:29:43;5.20;87.00
26408;DHT22;14583;43.604;1.364;2023-02-28T16:32:12;5.20;86.60
26408;DHT22;14583;43.604;1.364;2023-02-28T16:34:39;5.20;86.20
26408;DHT22;14583;43.604;1.364;2023-02-28T16:37:11;5.20;86.90
26408;DHT22;14583;43.604;1.364;2023-02-28T16:39:37;5.20;86.40
26408;DHT22;14583;43.604;1.364;2023-02-28T16:42:02;5.20;87.00
26408;DHT22;14583;43.604;1.364;2023-02-28T16:44:33;5.20;86.10
26408;DHT22;14583;43.604;1.364;2023-02-28T16:47:01;5.20;85.60
26408;DHT22;14583;43.604;1.364;2023-02-28T16:49:27;5.20;85.90
26408;DHT22;14583;43.604;1.364;2023-02-28T16:51:53;5.20;85.90
26408;DHT22;14583;43.604;1.364;2023-02-28T16:54:19;5.10;85.00
26408;DHT22;14583;43.604;1.364;2023-02-28T16:56:46;5.10;85.70
26408;DHT22;14583;43.604;1.364;2023-02-28T16:59:13;5.10;86.50
26408;DHT22;14583;43.604;1.364;2023-02-28T17:01:40;5.10;87.10
26408;DHT22;14583;43.604;1.364;2023-02-28T17:04:06;5.20;87.90
26408;DHT22;14583;43.604;1.364;2023-02-28T17:06:32;5.20;88.10
26408;DHT22;14583;43.604;1.364;2023-02-28T17:08:58;5.10;88.50
26408;DHT22;14583;43.604;1.364;2023-02-28T17:11:25;5.10;89.20
26408;DHT22;14583;43.604;1.364;2023-02-28T17:13:52;5.10;89.60
26408;DHT22;14583;43.604;1.364;2023-02-28T17:16:32;5.10;89.70
26408;DHT22;14583;43.604;1.364;2023-02-28T17:19:04;5.00;89.70
26408;DHT22;14583;43.604;1.364;2023-02-28T17:21:33;5.00;90.00
26408;DHT22;14583;43.604;1.364;2023-02-28T17:23:59;5.00;90.00
26408;DHT22;14583;43.604;1.364;2023-02-28T17:26:25;4.90;90.00
26408;DHT22;14583;43.604;1.364;2023-02-28T17:28:54;4.90;89.90
26408;DHT22;14583;43.604;1.364;2023-02-28T17:31:23;4.80;90.10
26408;DHT22;14583;43.604;1.364;2023-02-28T17:33:49;4.80;90.10
26408;DHT22;14583;43.604;1.364;2023-02-28T17:36:21;4.70;90.00
26408;DHT22;14583;43.604;1.364;2023-02-28T17:38:48;4.80;90.00
26408;DHT22;14583;43.604;1.364;2023-02-28T17:41:14;4.80;90.10
26408;DHT22;14583;43.604;1.364;2023-02-28T17:43:40;4.70;90.00
26408;DHT22;14583;43.604;1.364;2023-02-28T17:46:16;4.70;90.10
26408;DHT22;14583;43.604;1.364;2023-02-28T17:48:43;4.70;90.10
26408;DHT22;14583;43.604;1.364;2023-02-28T17:51:12;4.70;90.30
26408;DHT22;14583;43.604;1.364;2023-02-28T17:53:38;4.70;90.20
26408;DHT22;14583;43.604;1.364;2023-02-28T17:56:04;4.70;90.40
26408;DHT22;14583;43.604;1.364;2023-02-28T17:58:30;4.70;90.20
26408;DHT22;14583;43.604;1.364;2023-02-28T18:00:56;4.70;90.30
26408;DHT22;14583;43.604;1.364;2023-02-28T18:03:22;4.60;89.30
26408;DHT22;14583;43.604;1.364;2023-02-28T18:05:49;4.70;90.20
26408;DHT22;14583;43.604;1.364;2023-02-28T18:08:15;4.70;90.30
26408;DHT22;14583;43.604;1.364;2023-02-28T18:10:41;4.70;90.40
26408;DHT22;14583;43.604;1.364;2023-02-28T18:13:07;4.70;90.50
26408;DHT22;14583;43.604;1.364;2023-02-28T18:15:33;4.70;90.50
26408;DHT22;14583;43.604;1.364;2023-02-28T18:17:59;4.70;90.60
26408;DHT22;14583;43.604;1.364;2023-02-28T18:20:25;4.60;91.00